Bitflower — SBJE — position and weather

sailwx.info

Track history (hours):
 
Tides and Currents Weather Stations Pressure Air Temp Water Temp Dewpoint Dewpoint Depression Visibility Wind Speed Wind Dir Waves Ship Positions

Bitflower

Last reported at 2014-Aug-22 19:25 UTC. Time now 2014-Aug-22 19:44 UTC.
Position N 53°19' E 006°58'.

Length 116 m; draft 5.2 m.

Type: Tanker. MMSI: 266009000.

Date/timePositionNaut miles runAvg speedWind from/ knotsBaromVisibWave heightAir tempDewpointWater temp
2014-Aug-22 19:25N 53°19' E 006°58'0 0.0
2014-Aug-22 18:25N 53°19' E 006°58'0 0.0
2014-Aug-22 17:31N 53°19' E 006°58'1 1.2
2014-Aug-22 16:33N 53°20' E 006°56'5 5.5
2014-Aug-22 15:34N 53°25' E 006°56'23 9.4
2014-Aug-22 13:09N 53°37' E 006°23'8011.8
2014-Aug-22 06:25N 54°55' E 006°50'1113.3
2014-Aug-22 05:33N 55°06' E 006°57'1313.4
2014-Aug-22 04:33N 55°18' E 007°04'1313.4
2014-Aug-22 03:33N 55°31' E 007°11'2612.7
2014-Aug-22 01:32N 55°56' E 007°23'10212.6
2014-Aug-21 17:27N 57°26' E 008°51'5212.7
2014-Aug-21 13:19N 57°49' E 010°18'911.9
2014-Aug-21 12:33N 57°49' E 010°35'8 8.3
2014-Aug-21 11:33N 57°44' E 010°47'7 6.6
2014-Aug-21 10:32N 57°40' E 010°37'0 0.0
2014-Aug-21 07:31N 57°40' E 010°37'2 2.3
2014-Aug-21 06:33N 57°40' E 010°41'1212.4
2014-Aug-21 05:33N 57°52' E 010°45'1313.4
2014-Aug-21 04:33N 58°06' E 010°42'4513.2
2014-Aug-21 01:07N 58°51' E 010°35'813.5
2014-Aug-21 00:33N 58°59' E 010°33'1312.8
2014-Aug-20 23:33N 59°11' E 010°37'1514.8
2014-Aug-20 22:33N 59°26' E 010°33'2713.4
2014-Aug-20 20:32N 59°53' E 010°40'3 3.0
2014-Aug-20 19:31N 59°53' E 010°46'0 0.0
2014-Aug-20 18:28N 59°53' E 010°46'0 0.0
2014-Aug-20 17:28N 59°53' E 010°46'0 0.0
2014-Aug-20 16:28N 59°53' E 010°46'0 0.0
2014-Aug-20 15:25N 59°53' E 010°46'0 0.0
2014-Aug-20 14:31N 59°53' E 010°46'0 0.0
2014-Aug-20 13:31N 59°53' E 010°46'0 0.0
2014-Aug-20 12:22N 59°53' E 010°46'0 0.0
2014-Aug-20 11:31N 59°53' E 010°46'0 0.1
2014-Aug-20 10:31N 59°53' E 010°46'0 0.0
2014-Aug-20 09:31N 59°53' E 010°46'0 0.0
2014-Aug-20 08:19N 59°53' E 010°46'0 0.0
2014-Aug-20 07:19N 59°53' E 010°46'0 0.0
2014-Aug-20 06:22N 59°53' E 010°46'0 0.0
2014-Aug-20 05:22N 59°53' E 010°46'0 0.0
2014-Aug-20 04:22N 59°53' E 010°46'0 0.0
2014-Aug-20 03:19N 59°53' E 010°46'0 0.0
2014-Aug-20 02:25N 59°53' E 010°46'0 0.0
2014-Aug-20 01:25N 59°53' E 010°46'0 0.0
2014-Aug-20 00:33N 59°53' E 010°46'19 8.2
2014-Aug-19 22:14N 59°35' E 010°38'913.6
2014-Aug-19 21:33N 59°26' E 010°34'1413.7
2014-Aug-19 20:33N 59°12' E 010°39'1212.4
2014-Aug-19 19:33N 59°00' E 010°31'9713.6
2014-Aug-19 12:24N 57°41' E 008°44'1214.3
2014-Aug-19 11:33N 57°31' E 008°31'1414.1
2014-Aug-19 10:33N 57°20' E 008°16'11712.9
2014-Aug-19 01:33N 55°29' E 007°10'1212.2
2014-Aug-19 00:34N 55°18' E 007°04'1312.6
2014-Aug-18 23:33N 55°06' E 006°57'9112.5
2014-Aug-18 16:18N 53°37' E 006°22'1211.5
2014-Aug-18 15:17N 53°33' E 006°41'911.8
2014-Aug-18 14:33N 53°28' E 006°52'10 9.6
2014-Aug-18 13:33N 53°19' E 006°59'1 0.5
2014-Aug-18 12:21N 53°19' E 006°58'0 0.0
2014-Aug-18 11:21N 53°19' E 006°58'0 0.0
2014-Aug-18 10:21N 53°19' E 006°58'0 0.0
2014-Aug-18 09:33N 53°19' E 006°58'0 0.0
2014-Aug-18 08:33N 53°19' E 006°58'0 0.0
2014-Aug-18 07:33N 53°19' E 006°58'0 0.0
2014-Aug-18 06:33N 53°19' E 006°58'0 0.0
2014-Aug-18 05:33N 53°19' E 006°58'0 0.0
2014-Aug-18 04:33N 53°19' E 006°58'0 0.0
2014-Aug-18 03:33N 53°19' E 006°58'0 0.0
2014-Aug-18 02:33N 53°19' E 006°58'0 0.0
2014-Aug-18 01:33N 53°19' E 006°58'0 0.0
2014-Aug-18 00:27N 53°19' E 006°58'0 0.0
2014-Aug-17 18:33N 53°19' E 006°58'0 0.0
2014-Aug-17 17:33N 53°19' E 006°58'0 0.0
2014-Aug-17 16:33N 53°19' E 006°58'0 0.0
2014-Aug-17 15:33N 53°19' E 006°58'0 0.0
2014-Aug-17 14:33N 53°19' E 006°58'0 0.0
2014-Aug-17 13:33N 53°19' E 006°58'0 0.0
2014-Aug-17 12:30N 53°19' E 006°58'1 0.7
2014-Aug-17 11:33N 53°19' E 006°57'5 5.0
2014-Aug-17 10:33N 53°24' E 006°57'1514.4
2014-Aug-17 09:32N 53°34' E 006°39'9 9.5
2014-Aug-17 08:33N 53°37' E 006°23'3 3.1
2014-Aug-17 07:32N 53°36' E 006°18'0 0.0
2014-Aug-17 06:32N 53°36' E 006°18'0 0.0
2014-Aug-17 05:29N 53°36' E 006°18'0 0.0
2014-Aug-17 04:17N 53°36' E 006°18'0 0.0
2014-Aug-17 03:29N 53°36' E 006°18'2 1.7
2014-Aug-17 02:33N 53°37' E 006°16'8 7.7
2014-Aug-17 01:33N 53°38' E 006°03'7 6.5
2014-Aug-17 00:33N 53°39' E 005°52'8 8.5
2014-Aug-16 23:34N 53°36' E 005°38'1313.4
2014-Aug-16 22:33N 53°32' E 005°17'1413.9
2014-Aug-16 21:33N 53°27' E 004°55'3414.5
2014-Aug-16 19:14N 53°00' E 004°21'9112.9
2014-Aug-16 12:09N 51°37' E 003°22'712.0
2014-Aug-16 11:33N 51°30' E 003°28'1111.0
2014-Aug-16 10:34N 51°25' E 003°43'1211.7
2014-Aug-16 09:34N 51°26' E 004°01'1111.1
2014-Aug-16 08:33N 51°21' E 004°17'0 0.0
2014-Aug-16 07:34N 51°21' E 004°17'4 3.7
2014-Aug-16 06:33N 51°18' E 004°20'2 1.6
2014-Aug-16 05:22N 51°16' E 004°20'0 0.0
2014-Aug-16 04:26N 51°16' E 004°20'0 0.0
2014-Aug-16 03:32N 51°16' E 004°20'0 0.0
2014-Aug-16 02:26N 51°16' E 004°20'0 0.0
2014-Aug-16 01:28N 51°16' E 004°20'0 0.0
2014-Aug-16 00:32N 51°16' E 004°20'0 0.0
2014-Aug-15 23:32N 51°16' E 004°20'0 0.0
2014-Aug-15 22:31N 51°16' E 004°20'0 0.0
2014-Aug-15 21:31N 51°16' E 004°20'0 0.0
2014-Aug-15 20:28N 51°16' E 004°20'0 0.0
2014-Aug-15 19:31N 51°16' E 004°20'0 0.0
2014-Aug-15 18:34N 51°16' E 004°20'4 3.9
2014-Aug-15 17:34N 51°19' E 004°19'2 1.5
2014-Aug-15 16:33N 51°21' E 004°17'3 2.4
2014-Aug-15 15:31N 51°22' E 004°13'1010.0
2014-Aug-15 14:34N 51°26' E 003°60'1110.9
2014-Aug-15 13:33N 51°25' E 003°42'1312.7
2014-Aug-15 12:33N 51°24' E 003°22'1413.8
2014-Aug-15 11:33N 51°23' E 002°60'1311.5
2014-Aug-15 10:28N 51°22' E 002°40'4 4.2
2014-Aug-15 09:32N 51°20' E 002°34'0 0.0
2014-Aug-15 08:32N 51°20' E 002°34'0 0.1
2014-Aug-15 07:26N 51°20' E 002°34'0 0.1
2014-Aug-15 06:32N 51°20' E 002°35'0 0.0
2014-Aug-15 05:32N 51°20' E 002°35'1 0.8
2014-Aug-15 04:33N 51°21' E 002°35'7 7.5
2014-Aug-15 03:33N 51°20' E 002°23'1311.4
2014-Aug-15 02:23N 51°14' E 002°04'1111.0
2014-Aug-15 01:24N 51°08' E 001°49'1412.3
2014-Aug-15 00:16N 50°59' E 001°33'3910.6
2014-Aug-14 20:33N 50°29' E 000°53'1211.5
2014-Aug-14 19:33N 50°26' E 000°35'1211.3
2014-Aug-14 18:29N 50°23' E 000°17'26212.5
2014-Aug-13 21:33N 48°05' W 005°24'  
Track history (hours):
 
Tides and Currents Weather Stations Pressure Air Temp Water Temp Dewpoint Dewpoint Depression Visibility Wind Speed Wind Dir Waves Ship Positions

Bitflower

Last reported at 2014-Aug-22 19:25 UTC. Time now 2014-Aug-22 19:44 UTC.
Position N 53°19' E 006°58'.

Length 116 m; draft 5.2 m.

Type: Tanker. MMSI: 266009000.

Date/timePositionNaut miles runAvg speedWind from/ knotsBaromVisibWave heightAir tempDewpointWater temp
2014-Aug-22 19:25N 53°19' E 006°58'0 0.0
2014-Aug-22 18:25N 53°19' E 006°58'0 0.0
2014-Aug-22 17:31N 53°19' E 006°58'1 1.2
2014-Aug-22 16:33N 53°20' E 006°56'5 5.5
2014-Aug-22 15:34N 53°25' E 006°56'23 9.4
2014-Aug-22 13:09N 53°37' E 006°23'8011.8
2014-Aug-22 06:25N 54°55' E 006°50'1113.3
2014-Aug-22 05:33N 55°06' E 006°57'1313.4
2014-Aug-22 04:33N 55°18' E 007°04'1313.4
2014-Aug-22 03:33N 55°31' E 007°11'2612.7
2014-Aug-22 01:32N 55°56' E 007°23'10212.6
2014-Aug-21 17:27N 57°26' E 008°51'5212.7
2014-Aug-21 13:19N 57°49' E 010°18'911.9
2014-Aug-21 12:33N 57°49' E 010°35'8 8.3
2014-Aug-21 11:33N 57°44' E 010°47'7 6.6
2014-Aug-21 10:32N 57°40' E 010°37'0 0.0
2014-Aug-21 07:31N 57°40' E 010°37'2 2.3
2014-Aug-21 06:33N 57°40' E 010°41'1212.4
2014-Aug-21 05:33N 57°52' E 010°45'1313.4
2014-Aug-21 04:33N 58°06' E 010°42'4513.2
2014-Aug-21 01:07N 58°51' E 010°35'813.5
2014-Aug-21 00:33N 58°59' E 010°33'1312.8
2014-Aug-20 23:33N 59°11' E 010°37'1514.8
2014-Aug-20 22:33N 59°26' E 010°33'2713.4
2014-Aug-20 20:32N 59°53' E 010°40'3 3.0
2014-Aug-20 19:31N 59°53' E 010°46'0 0.0
2014-Aug-20 18:28N 59°53' E 010°46'0 0.0
2014-Aug-20 17:28N 59°53' E 010°46'0 0.0
2014-Aug-20 16:28N 59°53' E 010°46'0 0.0
2014-Aug-20 15:25N 59°53' E 010°46'0 0.0
2014-Aug-20 14:31N 59°53' E 010°46'0 0.0
2014-Aug-20 13:31N 59°53' E 010°46'0 0.0
2014-Aug-20 12:22N 59°53' E 010°46'0 0.0
2014-Aug-20 11:31N 59°53' E 010°46'0 0.1
2014-Aug-20 10:31N 59°53' E 010°46'0 0.0
2014-Aug-20 09:31N 59°53' E 010°46'0 0.0
2014-Aug-20 08:19N 59°53' E 010°46'0 0.0
2014-Aug-20 07:19N 59°53' E 010°46'0 0.0
2014-Aug-20 06:22N 59°53' E 010°46'0 0.0
2014-Aug-20 05:22N 59°53' E 010°46'0 0.0
2014-Aug-20 04:22N 59°53' E 010°46'0 0.0
2014-Aug-20 03:19N 59°53' E 010°46'0 0.0
2014-Aug-20 02:25N 59°53' E 010°46'0 0.0
2014-Aug-20 01:25N 59°53' E 010°46'0 0.0
2014-Aug-20 00:33N 59°53' E 010°46'19 8.2
2014-Aug-19 22:14N 59°35' E 010°38'913.6
2014-Aug-19 21:33N 59°26' E 010°34'1413.7
2014-Aug-19 20:33N 59°12' E 010°39'1212.4
2014-Aug-19 19:33N 59°00' E 010°31'9713.6
2014-Aug-19 12:24N 57°41' E 008°44'1214.3
2014-Aug-19 11:33N 57°31' E 008°31'1414.1
2014-Aug-19 10:33N 57°20' E 008°16'11712.9
2014-Aug-19 01:33N 55°29' E 007°10'1212.2
2014-Aug-19 00:34N 55°18' E 007°04'1312.6
2014-Aug-18 23:33N 55°06' E 006°57'9112.5
2014-Aug-18 16:18N 53°37' E 006°22'1211.5
2014-Aug-18 15:17N 53°33' E 006°41'911.8
2014-Aug-18 14:33N 53°28' E 006°52'10 9.6
2014-Aug-18 13:33N 53°19' E 006°59'1 0.5
2014-Aug-18 12:21N 53°19' E 006°58'0 0.0
2014-Aug-18 11:21N 53°19' E 006°58'0 0.0
2014-Aug-18 10:21N 53°19' E 006°58'0 0.0
2014-Aug-18 09:33N 53°19' E 006°58'0 0.0
2014-Aug-18 08:33N 53°19' E 006°58'0 0.0
2014-Aug-18 07:33N 53°19' E 006°58'0 0.0
2014-Aug-18 06:33N 53°19' E 006°58'0 0.0
2014-Aug-18 05:33N 53°19' E 006°58'0 0.0
2014-Aug-18 04:33N 53°19' E 006°58'0 0.0
2014-Aug-18 03:33N 53°19' E 006°58'0 0.0
2014-Aug-18 02:33N 53°19' E 006°58'0 0.0
2014-Aug-18 01:33N 53°19' E 006°58'0 0.0
2014-Aug-18 00:27N 53°19' E 006°58'0 0.0
2014-Aug-17 18:33N 53°19' E 006°58'0 0.0
2014-Aug-17 17:33N 53°19' E 006°58'0 0.0
2014-Aug-17 16:33N 53°19' E 006°58'0 0.0
2014-Aug-17 15:33N 53°19' E 006°58'0 0.0
2014-Aug-17 14:33N 53°19' E 006°58'0 0.0
2014-Aug-17 13:33N 53°19' E 006°58'0 0.0
2014-Aug-17 12:30N 53°19' E 006°58'1 0.7
2014-Aug-17 11:33N 53°19' E 006°57'5 5.0
2014-Aug-17 10:33N 53°24' E 006°57'1514.4
2014-Aug-17 09:32N 53°34' E 006°39'9 9.5
2014-Aug-17 08:33N 53°37' E 006°23'3 3.1
2014-Aug-17 07:32N 53°36' E 006°18'0 0.0
2014-Aug-17 06:32N 53°36' E 006°18'0 0.0
2014-Aug-17 05:29N 53°36' E 006°18'0 0.0
2014-Aug-17 04:17N 53°36' E 006°18'0 0.0
2014-Aug-17 03:29N 53°36' E 006°18'2 1.7
2014-Aug-17 02:33N 53°37' E 006°16'8 7.7
2014-Aug-17 01:33N 53°38' E 006°03'7 6.5
2014-Aug-17 00:33N 53°39' E 005°52'8 8.5
2014-Aug-16 23:34N 53°36' E 005°38'1313.4
2014-Aug-16 22:33N 53°32' E 005°17'1413.9
2014-Aug-16 21:33N 53°27' E 004°55'3414.5
2014-Aug-16 19:14N 53°00' E 004°21'9112.9
2014-Aug-16 12:09N 51°37' E 003°22'712.0
2014-Aug-16 11:33N 51°30' E 003°28'1111.0
2014-Aug-16 10:34N 51°25' E 003°43'1211.7
2014-Aug-16 09:34N 51°26' E 004°01'1111.1
2014-Aug-16 08:33N 51°21' E 004°17'0 0.0
2014-Aug-16 07:34N 51°21' E 004°17'4 3.7
2014-Aug-16 06:33N 51°18' E 004°20'2 1.6
2014-Aug-16 05:22N 51°16' E 004°20'0 0.0
2014-Aug-16 04:26N 51°16' E 004°20'0 0.0
2014-Aug-16 03:32N 51°16' E 004°20'0 0.0
2014-Aug-16 02:26N 51°16' E 004°20'0 0.0
2014-Aug-16 01:28N 51°16' E 004°20'0 0.0
2014-Aug-16 00:32N 51°16' E 004°20'0 0.0
2014-Aug-15 23:32N 51°16' E 004°20'0 0.0
2014-Aug-15 22:31N 51°16' E 004°20'0 0.0
2014-Aug-15 21:31N 51°16' E 004°20'0 0.0
2014-Aug-15 20:28N 51°16' E 004°20'0 0.0
2014-Aug-15 19:31N 51°16' E 004°20'0 0.0
2014-Aug-15 18:34N 51°16' E 004°20'4 3.9
2014-Aug-15 17:34N 51°19' E 004°19'2 1.5
2014-Aug-15 16:33N 51°21' E 004°17'3 2.4
2014-Aug-15 15:31N 51°22' E 004°13'1010.0
2014-Aug-15 14:34N 51°26' E 003°60'1110.9
2014-Aug-15 13:33N 51°25' E 003°42'1312.7
2014-Aug-15 12:33N 51°24' E 003°22'1413.8
2014-Aug-15 11:33N 51°23' E 002°60'1311.5
2014-Aug-15 10:28N 51°22' E 002°40'4 4.2
2014-Aug-15 09:32N 51°20' E 002°34'0 0.0
2014-Aug-15 08:32N 51°20' E 002°34'0 0.1
2014-Aug-15 07:26N 51°20' E 002°34'0 0.1
2014-Aug-15 06:32N 51°20' E 002°35'0 0.0
2014-Aug-15 05:32N 51°20' E 002°35'1 0.8
2014-Aug-15 04:33N 51°21' E 002°35'7 7.5
2014-Aug-15 03:33N 51°20' E 002°23'1311.4
2014-Aug-15 02:23N 51°14' E 002°04'1111.0
2014-Aug-15 01:24N 51°08' E 001°49'1412.3
2014-Aug-15 00:16N 50°59' E 001°33'3910.6
2014-Aug-14 20:33N 50°29' E 000°53'1211.5
2014-Aug-14 19:33N 50°26' E 000°35'1211.3
2014-Aug-14 18:29N 50°23' E 000°17'26212.5
2014-Aug-13 21:33N 48°05' W 005°24'  

Dump ship's entire track history